sensor_id;sensor_type;location;lat;lon;timestamp;temperature;humidity
3919;DHT22;1974;48.670;8.994;2022-09-09T00:00:13;15.30;99.90
3919;DHT22;1974;48.670;8.994;2022-09-09T00:02:42;15.30;99.90
3919;DHT22;1974;48.670;8.994;2022-09-09T00:05:18;15.30;99.90
3919;DHT22;1974;48.670;8.994;2022-09-09T00:07:52;15.30;99.90
3919;DHT22;1974;48.670;8.994;2022-09-09T00:10:23;15.30;99.90
3919;DHT22;1974;48.670;8.994;2022-09-09T00:12:59;15.30;99.90
3919;DHT22;1974;48.670;8.994;2022-09-09T00:15:31;15.30;99.90
3919;DHT22;1974;48.670;8.994;2022-09-09T00:18:07;15.40;99.90
3919;DHT22;1974;48.670;8.994;2022-09-09T00:20:39;15.40;99.90
3919;DHT22;1974;48.670;8.994;2022-09-09T00:23:14;15.40;99.90
3919;DHT22;1974;48.670;8.994;2022-09-09T00:25:50;15.50;99.90
3919;DHT22;1974;48.670;8.994;2022-09-09T00:28:19;15.50;99.90
3919;DHT22;1974;48.670;8.994;2022-09-09T00:30:47;15.50;99.90
3919;DHT22;1974;48.670;8.994;2022-09-09T00:33:16;15.60;99.90
3919;DHT22;1974;48.670;8.994;2022-09-09T00:35:46;15.60;99.90
3919;DHT22;1974;48.670;8.994;2022-09-09T00:38:22;15.60;99.90
3919;DHT22;1974;48.670;8.994;2022-09-09T00:40:52;15.60;99.90
3919;DHT22;1974;48.670;8.994;2022-09-09T00:43:26;15.60;99.90
3919;DHT22;1974;48.670;8.994;2022-09-09T00:46:10;15.60;99.90
3919;DHT22;1974;48.670;8.994;2022-09-09T00:48:47;15.70;99.90
3919;DHT22;1974;48.670;8.994;2022-09-09T00:51:24;15.70;99.90
3919;DHT22;1974;48.670;8.994;2022-09-09T00:54:12;15.70;99.90
3919;DHT22;1974;48.670;8.994;2022-09-09T00:56:47;15.70;99.90
3919;DHT22;1974;48.670;8.994;2022-09-09T00:59:28;15.80;99.90
3919;DHT22;1974;48.670;8.994;2022-09-09T01:01:57;15.80;99.90
3919;DHT22;1974;48.670;8.994;2022-09-09T01:04:29;15.80;99.90
3919;DHT22;1974;48.670;8.994;2022-09-09T01:07:03;15.70;99.90
3919;DHT22;1974;48.670;8.994;2022-09-09T01:09:41;15.70;99.90
3919;DHT22;1974;48.670;8.994;2022-09-09T01:12:12;15.70;99.90
3919;DHT22;1974;48.670;8.994;2022-09-09T01:14:44;15.70;99.90
3919;DHT22;1974;48.670;8.994;2022-09-09T01:17:17;15.70;99.90
3919;DHT22;1974;48.670;8.994;2022-09-09T01:20:03;15.60;99.90
3919;DHT22;1974;48.670;8.994;2022-09-09T01:22:35;15.60;99.90
3919;DHT22;1974;48.670;8.994;2022-09-09T01:25:19;15.50;99.90
3919;DHT22;1974;48.670;8.994;2022-09-09T01:27:49;15.60;99.90
3919;DHT22;1974;48.670;8.994;2022-09-09T01:30:18;15.60;99.90
3919;DHT22;1974;48.670;8.994;2022-09-09T01:32:46;15.50;99.90
3919;DHT22;1974;48.670;8.994;2022-09-09T01:35:21;15.50;99.90
3919;DHT22;1974;48.670;8.994;2022-09-09T01:37:50;15.50;99.90
3919;DHT22;1974;48.670;8.994;2022-09-09T01:40:17;15.50;99.90
3919;DHT22;1974;48.670;8.994;2022-09-09T01:42:44;15.50;99.90
3919;DHT22;1974;48.670;8.994;2022-09-09T01:45:12;15.50;99.90
3919;DHT22;1974;48.670;8.994;2022-09-09T01:47:39;15.50;99.90
3919;DHT22;1974;48.670;8.994;2022-09-09T01:50:07;15.50;99.90
3919;DHT22;1974;48.670;8.994;2022-09-09T01:52:36;15.50;99.90
3919;DHT22;1974;48.670;8.994;2022-09-09T01:55:03;15.50;99.90
3919;DHT22;1974;48.670;8.994;2022-09-09T01:57:33;15.50;99.90
3919;DHT22;1974;48.670;8.994;2022-09-09T02:00:07;15.40;99.90
3919;DHT22;1974;48.670;8.994;2022-09-09T02:02:40;15.40;99.90
3919;DHT22;1974;48.670;8.994;2022-09-09T02:05:17;15.40;99.90
3919;DHT22;1974;48.670;8.994;2022-09-09T02:07:47;15.30;99.90
3919;DHT22;1974;48.670;8.994;2022-09-09T02:10:19;15.30;99.90
3919;DHT22;1974;48.670;8.994;2022-09-09T02:12:48;15.30;99.90
3919;DHT22;1974;48.670;8.994;2022-09-09T02:15:21;15.30;99.90
3919;DHT22;1974;48.670;8.994;2022-09-09T02:17:52;15.30;99.90
3919;DHT22;1974;48.670;8.994;2022-09-09T02:20:19;15.30;99.90
3919;DHT22;1974;48.670;8.994;2022-09-09T02:22:49;15.20;99.90
3919;DHT22;1974;48.670;8.994;2022-09-09T02:25:20;15.20;99.90
3919;DHT22;1974;48.670;8.994;2022-09-09T02:27:50;15.20;99.90
3919;DHT22;1974;48.670;8.994;2022-09-09T02:30:17;15.10;99.90
3919;DHT22;1974;48.670;8.994;2022-09-09T02:32:46;15.10;99.90
3919;DHT22;1974;48.670;8.994;2022-09-09T02:35:17;15.20;99.90
3919;DHT22;1974;48.670;8.994;2022-09-09T02:37:45;15.10;99.90
3919;DHT22;1974;48.670;8.994;2022-09-09T02:40:13;15.10;99.90
3919;DHT22;1974;48.670;8.994;2022-09-09T02:42:43;15.10;99.90
3919;DHT22;1974;48.670;8.994;2022-09-09T02:45:12;15.20;99.90
3919;DHT22;1974;48.670;8.994;2022-09-09T02:47:44;15.10;99.90
3919;DHT22;1974;48.670;8.994;2022-09-09T02:50:17;15.10;99.90
3919;DHT22;1974;48.670;8.994;2022-09-09T02:52:58;15.10;99.90
3919;DHT22;1974;48.670;8.994;2022-09-09T02:55:36;15.10;99.90
3919;DHT22;1974;48.670;8.994;2022-09-09T02:58:05;15.20;99.90
3919;DHT22;1974;48.670;8.994;2022-09-09T03:00:33;15.10;99.90
3919;DHT22;1974;48.670;8.994;2022-09-09T03:03:02;15.10;99.90
3919;DHT22;1974;48.670;8.994;2022-09-09T03:05:30;15.10;99.90
3919;DHT22;1974;48.670;8.994;2022-09-09T03:07:58;15.10;99.90
3919;DHT22;1974;48.670;8.994;2022-09-09T03:10:25;15.10;99.90
3919;DHT22;1974;48.670;8.994;2022-09-09T03:12:51;15.10;99.90
3919;DHT22;1974;48.670;8.994;2022-09-09T03:15:18;15.00;99.90
3919;DHT22;1974;48.670;8.994;2022-09-09T03:17:45;15.00;99.90
3919;DHT22;1974;48.670;8.994;2022-09-09T03:20:13;15.00;99.90
3919;DHT22;1974;48.670;8.994;2022-09-09T03:22:41;15.00;99.90
3919;DHT22;1974;48.670;8.994;2022-09-09T03:25:09;15.00;99.90
3919;DHT22;1974;48.670;8.994;2022-09-09T03:27:36;15.00;99.90
3919;DHT22;1974;48.670;8.994;2022-09-09T03:30:03;14.90;99.90
3919;DHT22;1974;48.670;8.994;2022-09-09T03:32:31;14.90;99.90
3919;DHT22;1974;48.670;8.994;2022-09-09T03:34:57;14.90;99.90
3919;DHT22;1974;48.670;8.994;2022-09-09T03:37:24;14.90;99.90
3919;DHT22;1974;48.670;8.994;2022-09-09T03:39:52;14.90;99.90
3919;DHT22;1974;48.670;8.994;2022-09-09T03:42:20;14.80;99.90
3919;DHT22;1974;48.670;8.994;2022-09-09T03:44:47;14.80;99.90
3919;DHT22;1974;48.670;8.994;2022-09-09T03:47:16;14.80;99.90
3919;DHT22;1974;48.670;8.994;2022-09-09T03:49:43;14.80;99.90
3919;DHT22;1974;48.670;8.994;2022-09-09T03:52:10;14.80;99.90
3919;DHT22;1974;48.670;8.994;2022-09-09T03:54:37;14.80;99.90
3919;DHT22;1974;48.670;8.994;2022-09-09T03:57:06;14.80;99.90
3919;DHT22;1974;48.670;8.994;2022-09-09T03:59:32;14.80;99.90
3919;DHT22;1974;48.670;8.994;2022-09-09T04:02:00;14.70;99.90
3919;DHT22;1974;48.670;8.994;2022-09-09T04:04:27;14.70;99.90
3919;DHT22;1974;48.670;8.994;2022-09-09T04:06:54;14.60;99.90
3919;DHT22;1974;48.670;8.994;2022-09-09T04:09:21;14.70;99.90
3919;DHT22;1974;48.670;8.994;2022-09-09T04:11:48;14.70;99.90
3919;DHT22;1974;48.670;8.994;2022-09-09T04:14:17;14.70;99.90
3919;DHT22;1974;48.670;8.994;2022-09-09T04:16:43;14.70;99.90
3919;DHT22;1974;48.670;8.994;2022-09-09T04:19:11;14.70;99.90
3919;DHT22;1974;48.670;8.994;2022-09-09T04:21:39;14.70;99.90
3919;DHT22;1974;48.670;8.994;2022-09-09T04:24:06;14.80;99.90
3919;DHT22;1974;48.670;8.994;2022-09-09T04:26:33;14.80;99.90
3919;DHT22;1974;48.670;8.994;2022-09-09T04:29:01;14.80;99.90
3919;DHT22;1974;48.670;8.994;2022-09-09T04:31:30;14.80;99.90
3919;DHT22;1974;48.670;8.994;2022-09-09T04:33:56;14.80;99.90
3919;DHT22;1974;48.670;8.994;2022-09-09T04:36:23;14.90;99.90
3919;DHT22;1974;48.670;8.994;2022-09-09T04:38:50;14.90;99.90
3919;DHT22;1974;48.670;8.994;2022-09-09T04:41:17;14.90;99.90
3919;DHT22;1974;48.670;8.994;2022-09-09T04:43:44;14.90;99.90
3919;DHT22;1974;48.670;8.994;2022-09-09T04:46:10;14.80;99.90
3919;DHT22;1974;48.670;8.994;2022-09-09T04:48:38;14.90;99.90
3919;DHT22;1974;48.670;8.994;2022-09-09T04:51:06;14.90;99.90
3919;DHT22;1974;48.670;8.994;2022-09-09T04:53:35;14.90;99.90
3919;DHT22;1974;48.670;8.994;2022-09-09T04:56:03;14.80;99.90
3919;DHT22;1974;48.670;8.994;2022-09-09T04:58:30;14.80;99.90
3919;DHT22;1974;48.670;8.994;2022-09-09T05:01:03;14.70;99.90
3919;DHT22;1974;48.670;8.994;2022-09-09T05:03:30;14.70;99.90
3919;DHT22;1974;48.670;8.994;2022-09-09T05:06:04;14.70;99.90
3919;DHT22;1974;48.670;8.994;2022-09-09T05:08:31;14.70;99.90
3919;DHT22;1974;48.670;8.994;2022-09-09T05:10:58;14.70;99.90
3919;DHT22;1974;48.670;8.994;2022-09-09T05:13:25;14.70;99.90
3919;DHT22;1974;48.670;8.994;2022-09-09T05:15:53;14.70;99.90
3919;DHT22;1974;48.670;8.994;2022-09-09T05:18:20;14.80;99.90
3919;DHT22;1974;48.670;8.994;2022-09-09T05:20:47;14.90;99.90
3919;DHT22;1974;48.670;8.994;2022-09-09T05:23:15;14.90;99.90
3919;DHT22;1974;48.670;8.994;2022-09-09T05:25:42;15.00;99.90
3919;DHT22;1974;48.670;8.994;2022-09-09T05:28:09;15.00;99.90
3919;DHT22;1974;48.670;8.994;2022-09-09T05:30:37;15.00;99.90
3919;DHT22;1974;48.670;8.994;2022-09-09T05:33:03;15.00;99.90
3919;DHT22;1974;48.670;8.994;2022-09-09T05:35:31;15.00;99.90
3919;DHT22;1974;48.670;8.994;2022-09-09T05:37:59;15.10;99.90
3919;DHT22;1974;48.670;8.994;2022-09-09T05:40:28;15.10;99.90
3919;DHT22;1974;48.670;8.994;2022-09-09T05:42:59;15.10;99.90
3919;DHT22;1974;48.670;8.994;2022-09-09T05:45:25;15.10;99.90
3919;DHT22;1974;48.670;8.994;2022-09-09T05:47:52;15.10;99.90
3919;DHT22;1974;48.670;8.994;2022-09-09T05:50:20;15.00;99.90
3919;DHT22;1974;48.670;8.994;2022-09-09T05:52:47;15.00;99.90
3919;DHT22;1974;48.670;8.994;2022-09-09T05:55:15;15.00;99.90
3919;DHT22;1974;48.670;8.994;2022-09-09T05:57:48;15.10;99.90
3919;DHT22;1974;48.670;8.994;2022-09-09T06:00:15;15.10;99.90
3919;DHT22;1974;48.670;8.994;2022-09-09T06:02:42;15.10;99.90
3919;DHT22;1974;48.670;8.994;2022-09-09T06:05:09;15.10;99.90
3919;DHT22;1974;48.670;8.994;2022-09-09T06:07:37;15.10;99.90
3919;DHT22;1974;48.670;8.994;2022-09-09T06:10:08;15.20;99.90
3919;DHT22;1974;48.670;8.994;2022-09-09T06:12:34;15.30;99.90
3919;DHT22;1974;48.670;8.994;2022-09-09T06:15:03;15.30;99.90
3919;DHT22;1974;48.670;8.994;2022-09-09T06:17:30;15.40;99.90
3919;DHT22;1974;48.670;8.994;2022-09-09T06:19:57;15.40;99.90
3919;DHT22;1974;48.670;8.994;2022-09-09T06:22:24;15.50;99.90
3919;DHT22;1974;48.670;8.994;2022-09-09T06:24:51;15.50;99.90
3919;DHT22;1974;48.670;8.994;2022-09-09T06:27:19;15.50;99.90
3919;DHT22;1974;48.670;8.994;2022-09-09T06:29:46;15.50;99.90
3919;DHT22;1974;48.670;8.994;2022-09-09T06:32:14;15.50;99.90
3919;DHT22;1974;48.670;8.994;2022-09-09T06:34:41;15.60;99.90
3919;DHT22;1974;48.670;8.994;2022-09-09T06:37:08;15.60;99.90
3919;DHT22;1974;48.670;8.994;2022-09-09T06:39:35;15.70;99.90
3919;DHT22;1974;48.670;8.994;2022-09-09T06:42:02;15.70;99.90
3919;DHT22;1974;48.670;8.994;2022-09-09T06:44:29;15.90;99.90
3919;DHT22;1974;48.670;8.994;2022-09-09T06:46:57;15.90;99.90
3919;DHT22;1974;48.670;8.994;2022-09-09T06:49:25;16.00;99.90
3919;DHT22;1974;48.670;8.994;2022-09-09T06:51:52;16.10;99.90
3919;DHT22;1974;48.670;8.994;2022-09-09T06:54:19;16.20;99.90
3919;DHT22;1974;48.670;8.994;2022-09-09T06:56:47;16.20;99.90
3919;DHT22;1974;48.670;8.994;2022-09-09T06:59:15;16.30;99.90
3919;DHT22;1974;48.670;8.994;2022-09-09T07:01:43;16.40;99.90
3919;DHT22;1974;48.670;8.994;2022-09-09T07:04:10;16.50;99.90
3919;DHT22;1974;48.670;8.994;2022-09-09T07:06:41;16.50;99.90
3919;DHT22;1974;48.670;8.994;2022-09-09T07:09:10;16.60;99.90
3919;DHT22;1974;48.670;8.994;2022-09-09T07:11:39;16.70;99.90
3919;DHT22;1974;48.670;8.994;2022-09-09T07:14:06;16.80;99.90
3919;DHT22;1974;48.670;8.994;2022-09-09T07:16:34;16.80;99.90
3919;DHT22;1974;48.670;8.994;2022-09-09T07:19:03;16.90;99.90
3919;DHT22;1974;48.670;8.994;2022-09-09T07:21:31;16.90;99.90
3919;DHT22;1974;48.670;8.994;2022-09-09T07:24:00;16.90;99.90
3919;DHT22;1974;48.670;8.994;2022-09-09T07:26:28;17.10;99.90
3919;DHT22;1974;48.670;8.994;2022-09-09T07:28:55;17.10;99.90
3919;DHT22;1974;48.670;8.994;2022-09-09T07:31:24;17.30;99.90
3919;DHT22;1974;48.670;8.994;2022-09-09T07:33:51;17.50;99.90
3919;DHT22;1974;48.670;8.994;2022-09-09T07:36:20;17.60;99.90
3919;DHT22;1974;48.670;8.994;2022-09-09T07:38:49;17.60;99.90
3919;DHT22;1974;48.670;8.994;2022-09-09T07:41:19;17.60;99.90
3919;DHT22;1974;48.670;8.994;2022-09-09T07:43:48;17.70;99.90
3919;DHT22;1974;48.670;8.994;2022-09-09T07:46:17;17.90;99.90
3919;DHT22;1974;48.670;8.994;2022-09-09T07:48:45;17.70;99.90
3919;DHT22;1974;48.670;8.994;2022-09-09T07:51:14;17.70;99.90
3919;DHT22;1974;48.670;8.994;2022-09-09T07:53:45;17.70;99.90
3919;DHT22;1974;48.670;8.994;2022-09-09T07:56:14;17.80;99.90
3919;DHT22;1974;48.670;8.994;2022-09-09T07:58:45;18.00;99.90
3919;DHT22;1974;48.670;8.994;2022-09-09T08:01:14;18.10;99.90
3919;DHT22;1974;48.670;8.994;2022-09-09T08:03:43;18.30;99.90
3919;DHT22;1974;48.670;8.994;2022-09-09T08:06:11;18.40;99.90
3919;DHT22;1974;48.670;8.994;2022-09-09T08:08:39;18.60;99.90
3919;DHT22;1974;48.670;8.994;2022-09-09T08:11:09;18.80;99.90
3919;DHT22;1974;48.670;8.994;2022-09-09T08:13:37;18.90;99.90
3919;DHT22;1974;48.670;8.994;2022-09-09T08:16:07;19.10;99.90
3919;DHT22;1974;48.670;8.994;2022-09-09T08:18:34;19.20;99.90
3919;DHT22;1974;48.670;8.994;2022-09-09T08:21:08;19.50;99.90
3919;DHT22;1974;48.670;8.994;2022-09-09T08:23:37;19.80;99.90
3919;DHT22;1974;48.670;8.994;2022-09-09T08:26:05;19.80;99.90
3919;DHT22;1974;48.670;8.994;2022-09-09T08:28:34;20.00;99.90
3919;DHT22;1974;48.670;8.994;2022-09-09T08:31:10;20.10;99.90
3919;DHT22;1974;48.670;8.994;2022-09-09T08:33:38;20.30;99.90
3919;DHT22;1974;48.670;8.994;2022-09-09T08:36:05;20.40;99.90
3919;DHT22;1974;48.670;8.994;2022-09-09T08:38:34;20.40;99.90
3919;DHT22;1974;48.670;8.994;2022-09-09T08:41:17;20.60;99.90
3919;DHT22;1974;48.670;8.994;2022-09-09T08:43:50;20.80;99.90
3919;DHT22;1974;48.670;8.994;2022-09-09T08:46:34;20.80;99.90
3919;DHT22;1974;48.670;8.994;2022-09-09T08:49:16;21.00;99.90
3919;DHT22;1974;48.670;8.994;2022-09-09T08:51:46;21.10;99.90
3919;DHT22;1974;48.670;8.994;2022-09-09T08:54:13;21.10;99.90
3919;DHT22;1974;48.670;8.994;2022-09-09T08:56:40;20.80;99.90
3919;DHT22;1974;48.670;8.994;2022-09-09T08:59:09;20.40;99.90
3919;DHT22;1974;48.670;8.994;2022-09-09T09:01:48;20.00;99.90
3919;DHT22;1974;48.670;8.994;2022-09-09T09:04:37;19.20;99.90
3919;DHT22;1974;48.670;8.994;2022-09-09T09:07:17;18.30;99.90
3919;DHT22;1974;48.670;8.994;2022-09-09T09:09:52;17.50;99.90
3919;DHT22;1974;48.670;8.994;2022-09-09T09:12:26;16.90;99.90
3919;DHT22;1974;48.670;8.994;2022-09-09T09:14:54;16.50;99.90
3919;DHT22;1974;48.670;8.994;2022-09-09T09:17:26;16.10;99.90
3919;DHT22;1974;48.670;8.994;2022-09-09T09:19:53;15.90;99.90
3919;DHT22;1974;48.670;8.994;2022-09-09T09:22:21;15.90;99.90
3919;DHT22;1974;48.670;8.994;2022-09-09T09:24:52;16.10;99.90
3919;DHT22;1974;48.670;8.994;2022-09-09T09:27:25;16.50;99.90
3919;DHT22;1974;48.670;8.994;2022-09-09T09:29:55;16.80;99.90
3919;DHT22;1974;48.670;8.994;2022-09-09T09:32:28;17.00;99.90
3919;DHT22;1974;48.670;8.994;2022-09-09T09:34:57;17.10;99.90
3919;DHT22;1974;48.670;8.994;2022-09-09T09:37:31;17.20;99.90
3919;DHT22;1974;48.670;8.994;2022-09-09T09:40:08;17.40;99.90
3919;DHT22;1974;48.670;8.994;2022-09-09T09:42:37;17.70;99.90
3919;DHT22;1974;48.670;8.994;2022-09-09T09:45:08;18.30;99.90
3919;DHT22;1974;48.670;8.994;2022-09-09T09:47:43;19.00;99.90
3919;DHT22;1974;48.670;8.994;2022-09-09T09:50:17;19.60;99.90
3919;DHT22;1974;48.670;8.994;2022-09-09T09:52:53;19.90;99.90
3919;DHT22;1974;48.670;8.994;2022-09-09T09:55:21;20.00;99.90
3919;DHT22;1974;48.670;8.994;2022-09-09T09:57:49;20.10;99.90
3919;DHT22;1974;48.670;8.994;2022-09-09T10:00:18;20.10;99.90
3919;DHT22;1974;48.670;8.994;2022-09-09T10:02:48;20.20;99.90
3919;DHT22;1974;48.670;8.994;2022-09-09T10:05:18;20.10;99.90
3919;DHT22;1974;48.670;8.994;2022-09-09T10:07:46;19.90;99.90
3919;DHT22;1974;48.670;8.994;2022-09-09T10:10:20;19.70;99.90
3919;DHT22;1974;48.670;8.994;2022-09-09T10:12:55;19.50;99.90
3919;DHT22;1974;48.670;8.994;2022-09-09T10:15:34;19.20;99.90
3919;DHT22;1974;48.670;8.994;2022-09-09T10:18:16;19.10;99.90
3919;DHT22;1974;48.670;8.994;2022-09-09T10:20:52;19.00;99.90
3919;DHT22;1974;48.670;8.994;2022-09-09T10:23:31;18.90;99.90
3919;DHT22;1974;48.670;8.994;2022-09-09T10:26:13;18.80;99.90
3919;DHT22;1974;48.670;8.994;2022-09-09T10:28:58;18.70;99.90
3919;DHT22;1974;48.670;8.994;2022-09-09T10:31:34;18.50;99.90
3919;DHT22;1974;48.670;8.994;2022-09-09T10:34:20;18.50;99.90
3919;DHT22;1974;48.670;8.994;2022-09-09T10:36:50;18.50;99.90
3919;DHT22;1974;48.670;8.994;2022-09-09T10:39:31;18.70;99.90
3919;DHT22;1974;48.670;8.994;2022-09-09T10:42:04;19.00;99.90
3919;DHT22;1974;48.670;8.994;2022-09-09T10:44:55;19.20;99.90
3919;DHT22;1974;48.670;8.994;2022-09-09T10:47:53;19.30;99.90
3919;DHT22;1974;48.670;8.994;2022-09-09T10:50:37;19.50;99.90
3919;DHT22;1974;48.670;8.994;2022-09-09T10:53:14;19.90;99.90
3919;DHT22;1974;48.670;8.994;2022-09-09T10:55:50;20.70;99.90
3919;DHT22;1974;48.670;8.994;2022-09-09T10:58:21;21.70;99.90
3919;DHT22;1974;48.670;8.994;2022-09-09T11:00:53;21.80;99.90
3919;DHT22;1974;48.670;8.994;2022-09-09T11:03:24;21.80;99.90
3919;DHT22;1974;48.670;8.994;2022-09-09T11:05:56;21.60;99.90
3919;DHT22;1974;48.670;8.994;2022-09-09T11:08:26;21.50;99.90
3919;DHT22;1974;48.670;8.994;2022-09-09T11:10:58;21.20;99.90
3919;DHT22;1974;48.670;8.994;2022-09-09T11:13:35;20.70;99.90
3919;DHT22;1974;48.670;8.994;2022-09-09T11:16:10;20.30;99.90
3919;DHT22;1974;48.670;8.994;2022-09-09T11:18:41;20.10;99.90
3919;DHT22;1974;48.670;8.994;2022-09-09T11:21:16;19.80;99.90
3919;DHT22;1974;48.670;8.994;2022-09-09T11:23:45;19.60;99.90
3919;DHT22;1974;48.670;8.994;2022-09-09T11:26:18;19.50;99.90
3919;DHT22;1974;48.670;8.994;2022-09-09T11:28:59;19.30;99.90
3919;DHT22;1974;48.670;8.994;2022-09-09T11:31:43;19.20;99.90
3919;DHT22;1974;48.670;8.994;2022-09-09T11:34:23;19.10;99.90
3919;DHT22;1974;48.670;8.994;2022-09-09T11:37:10;19.10;99.90
3919;DHT22;1974;48.670;8.994;2022-09-09T11:40:04;19.00;99.90
3919;DHT22;1974;48.670;8.994;2022-09-09T11:42:34;18.70;99.90
3919;DHT22;1974;48.670;8.994;2022-09-09T11:45:22;18.60;99.90
3919;DHT22;1974;48.670;8.994;2022-09-09T11:47:52;18.50;99.90
3919;DHT22;1974;48.670;8.994;2022-09-09T11:50:32;18.50;99.90
3919;DHT22;1974;48.670;8.994;2022-09-09T11:53:16;18.40;99.90
3919;DHT22;1974;48.670;8.994;2022-09-09T11:55:47;18.60;99.90
3919;DHT22;1974;48.670;8.994;2022-09-09T11:58:17;18.80;99.90
3919;DHT22;1974;48.670;8.994;2022-09-09T12:00:47;18.90;99.90
3919;DHT22;1974;48.670;8.994;2022-09-09T12:03:33;19.00;99.90
3919;DHT22;1974;48.670;8.994;2022-09-09T12:06:09;19.10;99.90
3919;DHT22;1974;48.670;8.994;2022-09-09T12:08:42;19.20;99.90
3919;DHT22;1974;48.670;8.994;2022-09-09T12:11:10;19.30;99.90
3919;DHT22;1974;48.670;8.994;2022-09-09T12:13:37;19.50;99.90
3919;DHT22;1974;48.670;8.994;2022-09-09T12:16:04;19.50;99.90
3919;DHT22;1974;48.670;8.994;2022-09-09T12:18:34;19.60;99.90
3919;DHT22;1974;48.670;8.994;2022-09-09T12:21:06;19.60;99.90
3919;DHT22;1974;48.670;8.994;2022-09-09T12:23:42;19.70;99.90
3919;DHT22;1974;48.670;8.994;2022-09-09T12:26:28;19.70;99.90
3919;DHT22;1974;48.670;8.994;2022-09-09T12:29:09;19.70;99.90
3919;DHT22;1974;48.670;8.994;2022-09-09T12:31:41;19.60;99.90
3919;DHT22;1974;48.670;8.994;2022-09-09T12:34:13;19.60;99.90
3919;DHT22;1974;48.670;8.994;2022-09-09T12:36:43;19.60;99.90
3919;DHT22;1974;48.670;8.994;2022-09-09T12:39:19;19.50;99.90
3919;DHT22;1974;48.670;8.994;2022-09-09T12:41:52;19.60;99.90
3919;DHT22;1974;48.670;8.994;2022-09-09T12:44:23;19.70;99.90
3919;DHT22;1974;48.670;8.994;2022-09-09T12:46:51;19.70;99.90
3919;DHT22;1974;48.670;8.994;2022-09-09T12:49:30;19.70;99.90
3919;DHT22;1974;48.670;8.994;2022-09-09T12:52:01;19.70;99.90
3919;DHT22;1974;48.670;8.994;2022-09-09T12:54:33;19.70;99.90
3919;DHT22;1974;48.670;8.994;2022-09-09T12:57:01;19.70;99.90
3919;DHT22;1974;48.670;8.994;2022-09-09T12:59:36;19.60;99.90
3919;DHT22;1974;48.670;8.994;2022-09-09T13:02:16;19.70;99.90
3919;DHT22;1974;48.670;8.994;2022-09-09T13:04:44;19.70;99.90
3919;DHT22;1974;48.670;8.994;2022-09-09T13:07:12;19.80;99.90
3919;DHT22;1974;48.670;8.994;2022-09-09T13:09:43;19.80;99.90
3919;DHT22;1974;48.670;8.994;2022-09-09T13:12:14;19.80;99.90
3919;DHT22;1974;48.670;8.994;2022-09-09T13:14:44;19.80;99.90
3919;DHT22;1974;48.670;8.994;2022-09-09T13:17:19;19.80;99.90
3919;DHT22;1974;48.670;8.994;2022-09-09T13:19:47;19.80;99.90
3919;DHT22;1974;48.670;8.994;2022-09-09T13:22:26;19.80;99.90
3919;DHT22;1974;48.670;8.994;2022-09-09T13:25:03;19.70;99.90
3919;DHT22;1974;48.670;8.994;2022-09-09T13:27:33;19.70;99.90
3919;DHT22;1974;48.670;8.994;2022-09-09T13:30:19;19.60;99.90
3919;DHT22;1974;48.670;8.994;2022-09-09T13:32:48;19.60;99.90
3919;DHT22;1974;48.670;8.994;2022-09-09T13:35:26;19.70;99.90
3919;DHT22;1974;48.670;8.994;2022-09-09T13:37:53;19.90;99.90
3919;DHT22;1974;48.670;8.994;2022-09-09T13:40:23;20.00;99.90
3919;DHT22;1974;48.670;8.994;2022-09-09T13:42:52;20.00;99.90
3919;DHT22;1974;48.670;8.994;2022-09-09T13:45:22;20.00;99.90
3919;DHT22;1974;48.670;8.994;2022-09-09T13:47:50;20.00;99.90
3919;DHT22;1974;48.670;8.994;2022-09-09T13:50:21;19.90;99.90
3919;DHT22;1974;48.670;8.994;2022-09-09T13:52:49;19.90;99.90
3919;DHT22;1974;48.670;8.994;2022-09-09T13:55:17;20.00;99.90
3919;DHT22;1974;48.670;8.994;2022-09-09T13:57:52;19.90;99.90
3919;DHT22;1974;48.670;8.994;2022-09-09T14:00:19;19.80;99.90
3919;DHT22;1974;48.670;8.994;2022-09-09T14:02:46;19.80;99.90
3919;DHT22;1974;48.670;8.994;2022-09-09T14:05:13;19.80;99.90
3919;DHT22;1974;48.670;8.994;2022-09-09T14:07:40;19.80;99.90
3919;DHT22;1974;48.670;8.994;2022-09-09T14:10:08;19.80;99.90
3919;DHT22;1974;48.670;8.994;2022-09-09T14:12:35;19.80;99.90
3919;DHT22;1974;48.670;8.994;2022-09-09T14:15:05;19.80;99.90
3919;DHT22;1974;48.670;8.994;2022-09-09T14:17:32;19.90;99.90
3919;DHT22;1974;48.670;8.994;2022-09-09T14:20:02;19.80;99.90
3919;DHT22;1974;48.670;8.994;2022-09-09T14:22:29;19.80;99.90
3919;DHT22;1974;48.670;8.994;2022-09-09T14:24:55;19.80;99.90
3919;DHT22;1974;48.670;8.994;2022-09-09T14:27:23;19.80;99.90
3919;DHT22;1974;48.670;8.994;2022-09-09T14:29:51;19.80;99.90
3919;DHT22;1974;48.670;8.994;2022-09-09T14:32:19;19.90;99.90
3919;DHT22;1974;48.670;8.994;2022-09-09T14:34:46;19.90;99.90
3919;DHT22;1974;48.670;8.994;2022-09-09T14:37:15;20.00;99.90
3919;DHT22;1974;48.670;8.994;2022-09-09T14:39:42;20.00;99.90
3919;DHT22;1974;48.670;8.994;2022-09-09T14:42:09;20.00;99.90
3919;DHT22;1974;48.670;8.994;2022-09-09T14:44:37;19.90;99.90
3919;DHT22;1974;48.670;8.994;2022-09-09T14:47:04;19.90;99.90
3919;DHT22;1974;48.670;8.994;2022-09-09T14:49:32;19.80;99.90
3919;DHT22;1974;48.670;8.994;2022-09-09T14:51:59;19.80;99.90
3919;DHT22;1974;48.670;8.994;2022-09-09T14:54:26;19.80;99.90
3919;DHT22;1974;48.670;8.994;2022-09-09T14:56:53;19.80;99.90
3919;DHT22;1974;48.670;8.994;2022-09-09T14:59:20;19.70;99.90
3919;DHT22;1974;48.670;8.994;2022-09-09T15:01:47;19.70;99.90
3919;DHT22;1974;48.670;8.994;2022-09-09T15:04:14;19.70;99.90
3919;DHT22;1974;48.670;8.994;2022-09-09T15:06:43;19.70;99.90
3919;DHT22;1974;48.670;8.994;2022-09-09T15:09:13;19.80;99.90
3919;DHT22;1974;48.670;8.994;2022-09-09T15:11:40;19.80;99.90
3919;DHT22;1974;48.670;8.994;2022-09-09T15:14:08;19.90;99.90
3919;DHT22;1974;48.670;8.994;2022-09-09T15:16:35;19.90;99.90
3919;DHT22;1974;48.670;8.994;2022-09-09T15:19:02;19.90;99.90
3919;DHT22;1974;48.670;8.994;2022-09-09T15:21:31;20.00;99.90
3919;DHT22;1974;48.670;8.994;2022-09-09T15:23:59;19.90;99.90
3919;DHT22;1974;48.670;8.994;2022-09-09T15:26:26;19.80;99.90
3919;DHT22;1974;48.670;8.994;2022-09-09T15:28:53;19.80;99.90
3919;DHT22;1974;48.670;8.994;2022-09-09T15:31:22;19.80;99.90
3919;DHT22;1974;48.670;8.994;2022-09-09T15:33:49;19.70;99.90
3919;DHT22;1974;48.670;8.994;2022-09-09T15:36:18;19.70;99.90
3919;DHT22;1974;48.670;8.994;2022-09-09T15:38:45;19.60;99.90
3919;DHT22;1974;48.670;8.994;2022-09-09T15:41:13;19.50;99.90
3919;DHT22;1974;48.670;8.994;2022-09-09T15:43:43;19.40;99.90
3919;DHT22;1974;48.670;8.994;2022-09-09T15:46:23;19.40;99.90
3919;DHT22;1974;48.670;8.994;2022-09-09T15:48:51;19.30;99.90
3919;DHT22;1974;48.670;8.994;2022-09-09T15:51:18;19.20;99.90
3919;DHT22;1974;48.670;8.994;2022-09-09T15:53:45;19.20;99.90
3919;DHT22;1974;48.670;8.994;2022-09-09T15:56:14;19.10;99.90
3919;DHT22;1974;48.670;8.994;2022-09-09T15:58:41;19.10;99.90
3919;DHT22;1974;48.670;8.994;2022-09-09T16:01:10;19.10;99.90
3919;DHT22;1974;48.670;8.994;2022-09-09T16:03:39;19.10;99.90
3919;DHT22;1974;48.670;8.994;2022-09-09T16:06:06;19.10;99.90
3919;DHT22;1974;48.670;8.994;2022-09-09T16:08:34;19.10;99.90
3919;DHT22;1974;48.670;8.994;2022-09-09T16:11:06;19.10;99.90
3919;DHT22;1974;48.670;8.994;2022-09-09T16:13:36;19.00;99.90
3919;DHT22;1974;48.670;8.994;2022-09-09T16:16:05;19.10;99.90
3919;DHT22;1974;48.670;8.994;2022-09-09T16:18:35;19.00;99.90
3919;DHT22;1974;48.670;8.994;2022-09-09T16:21:03;19.00;99.90
3919;DHT22;1974;48.670;8.994;2022-09-09T16:23:31;19.00;99.90